Time;durP1;ratioP1;P1;durP2;ratioP2;P2;SDS_P1;SDS_P2;PMS_P1;PMS_P2;Temp;Humidity;BMP_temperature;BMP_pressure;BME280_temperature;BME280_humidity;BME280_pressure;Samples;Min_cycle;Max_cycle;Signal;HPM_P1;HPM_P2
2024/04/23 00:00:09;;;;;;;0.10;0.10;;;10.10;66.50;;;;;;5491431;26;20008;-78
2024/04/23 00:02:35;;;;;;;0.10;0.10;;;10.10;66.40;;;;;;5474690;26;20002;-78
2024/04/23 00:05:01;;;;;;;0.10;0.10;;;10.10;66.20;;;;;;5489604;26;20012;-78
2024/04/23 00:07:26;;;;;;;0.10;0.10;;;10.20;65.90;;;;;;5491287;26;20008;-78
2024/04/23 00:09:52;;;;;;;0.10;0.10;;;10.10;65.80;;;;;;5509996;26;20521;-79
2024/04/23 00:12:18;;;;;;;0.00;0.00;;;10.20;65.60;;;;;;5528172;26;20039;-78
2024/04/23 00:14:43;;;;;;;0.10;0.10;;;10.20;65.40;;;;;;5496199;26;19998;-78
2024/04/23 00:17:09;;;;;;;0.10;0.10;;;10.20;65.10;;;;;;5489586;26;19998;-78
2024/04/23 00:19:34;;;;;;;0.10;0.10;;;10.20;64.80;;;;;;5490289;26;19998;-79
2024/04/23 00:22:00;;;;;;;0.03;0.03;;;10.10;64.60;;;;;;5492230;26;20008;-78
2024/04/23 00:24:26;;;;;;;0.10;0.10;;;10.10;64.30;;;;;;5489880;26;19990;-78
2024/04/23 00:26:56;;;;;;;0.10;0.10;;;10.00;64.30;;;;;;5491868;26;20005;-79
2024/04/23 00:29:22;;;;;;;0.10;0.10;;;10.00;64.40;;;;;;5482229;26;19995;-78
2024/04/23 00:31:47;;;;;;;0.10;0.10;;;10.10;64.10;;;;;;5454430;26;19991;-79
2024/04/23 00:34:13;;;;;;;0.10;0.10;;;10.10;64.10;;;;;;5453946;26;19994;-78
2024/04/23 00:36:38;;;;;;;0.10;0.10;;;10.10;63.90;;;;;;5479015;26;20002;-79
2024/04/23 00:39:04;;;;;;;0.10;0.10;;;10.00;63.70;;;;;;5491768;26;20069;-78
2024/04/23 00:41:30;;;;;;;0.10;0.10;;;10.00;63.70;;;;;;5490505;26;20316;-78
2024/04/23 00:43:56;;;;;;;0.10;0.10;;;10.00;63.70;;;;;;5491627;26;19998;-78
2024/04/23 00:46:26;;;;;;;0.10;0.10;;;10.00;63.50;;;;;;5490512;26;19998;-78
2024/04/23 00:48:52;;;;;;;0.10;0.10;;;10.00;63.60;;;;;;5490562;26;20074;-79
2024/04/23 00:51:18;;;;;;;0.10;0.10;;;10.00;63.60;;;;;;5489072;26;20010;-78
2024/04/23 00:53:45;;;;;;;0.10;0.10;;;10.00;63.30;;;;;;5491270;26;19998;-79
2024/04/23 00:56:11;;;;;;;0.10;0.10;;;9.90;63.40;;;;;;5491372;26;20028;-79
2024/04/23 00:58:37;;;;;;;0.10;0.10;;;9.90;63.30;;;;;;5489122;26;20437;-78
2024/04/23 01:01:06;;;;;;;0.10;0.10;;;9.80;63.30;;;;;;5490730;26;19998;-79
2024/04/23 01:03:31;;;;;;;0.10;0.10;;;9.80;63.40;;;;;;5489556;26;20449;-78
2024/04/23 01:05:57;;;;;;;0.10;0.10;;;9.70;63.60;;;;;;5489820;26;20013;-78
2024/04/23 01:08:23;;;;;;;0.10;0.10;;;9.70;63.50;;;;;;5490653;26;20334;-78
2024/04/23 01:10:48;;;;;;;0.10;0.10;;;9.60;63.50;;;;;;5523944;26;20012;-78
2024/04/23 01:13:14;;;;;;;0.10;0.10;;;9.60;63.60;;;;;;5497639;26;20014;-78
2024/04/23 01:15:42;;;;;;;0.10;0.10;;;9.50;63.80;;;;;;5458005;26;19998;-78
2024/04/23 01:18:08;;;;;;;0.10;0.10;;;9.40;63.90;;;;;;5491051;26;19998;-78
2024/04/23 01:20:34;;;;;;;0.10;0.10;;;9.30;64.10;;;;;;5494195;26;20008;-78
2024/04/23 01:23:10;;;;;;;0.10;0.10;;;9.30;64.00;;;;;;5494033;26;19998;-79
2024/04/23 01:25:37;;;;;;;0.10;0.10;;;9.30;63.90;;;;;;5470111;26;20437;-78
2024/04/23 01:28:04;;;;;;;0.00;0.00;;;9.30;63.90;;;;;;5457541;26;20071;-79
2024/04/23 01:30:30;;;;;;;0.10;0.10;;;9.20;64.00;;;;;;5468777;26;20014;-78
2024/04/23 01:32:57;;;;;;;0.10;0.10;;;9.20;64.00;;;;;;5456268;26;19996;-79
2024/04/23 01:35:24;;;;;;;0.10;0.10;;;9.10;64.10;;;;;;5455670;26;20428;-78
2024/04/23 01:37:52;;;;;;;0.10;0.10;;;9.10;64.10;;;;;;5456239;26;20453;-78
2024/04/23 01:40:19;;;;;;;0.10;0.10;;;9.00;64.10;;;;;;5480274;26;20512;-79
2024/04/23 01:42:47;;;;;;;0.10;0.10;;;9.00;64.20;;;;;;5492134;26;20013;-78
2024/04/23 01:45:15;;;;;;;0.10;0.10;;;8.90;64.30;;;;;;5491833;26;20012;-78
2024/04/23 01:47:45;;;;;;;0.10;0.10;;;8.90;64.40;;;;;;5490059;26;20002;-78
2024/04/23 01:50:14;;;;;;;0.10;0.10;;;8.90;64.30;;;;;;5522688;26;20032;-78
2024/04/23 01:52:40;;;;;;;0.10;0.10;;;8.80;64.30;;;;;;5492383;26;20070;-79
2024/04/23 01:55:07;;;;;;;0.10;0.10;;;8.80;64.30;;;;;;5493732;26;20042;-78
2024/04/23 01:57:33;;;;;;;0.10;0.10;;;8.80;64.20;;;;;;5494341;26;19994;-79
2024/04/23 02:00:04;;;;;;;0.10;0.10;;;8.80;64.30;;;;;;5489356;26;20310;-78
2024/04/23 02:02:30;;;;;;;0.10;0.10;;;8.70;64.30;;;;;;5494184;26;20070;-78
2024/04/23 02:04:56;;;;;;;0.10;0.10;;;8.70;64.40;;;;;;5492061;26;19998;-78
2024/04/23 02:07:22;;;;;;;0.10;0.10;;;8.60;64.30;;;;;;5493954;26;20469;-78
2024/04/23 02:09:49;;;;;;;0.10;0.10;;;8.60;64.50;;;;;;5510441;26;19993;-79
2024/04/23 02:12:15;;;;;;;0.10;0.10;;;8.50;64.70;;;;;;5509809;25;19998;-79
2024/04/23 02:14:41;;;;;;;0.10;0.10;;;8.50;64.60;;;;;;5494145;26;20001;-79
2024/04/23 02:17:08;;;;;;;0.10;0.10;;;8.40;64.70;;;;;;5492624;26;20052;-78
2024/04/23 02:19:33;;;;;;;0.10;0.10;;;8.40;64.90;;;;;;5489977;26;20002;-78
2024/04/23 02:21:59;;;;;;;0.10;0.10;;;8.30;64.80;;;;;;5492119;26;20002;-79
2024/04/23 02:24:25;;;;;;;0.10;0.10;;;8.30;64.90;;;;;;5493190;26;20039;-78
2024/04/23 02:26:50;;;;;;;0.10;0.10;;;8.30;65.00;;;;;;5493671;26;19998;-78
2024/04/23 02:29:16;;;;;;;0.10;0.10;;;8.30;65.00;;;;;;5493517;26;20026;-79
2024/04/23 02:31:41;;;;;;;0.10;0.10;;;8.20;65.20;;;;;;5493481;26;19998;-78
2024/04/23 02:34:07;;;;;;;0.10;0.10;;;8.10;65.60;;;;;;5492113;26;20010;-78
2024/04/23 02:36:33;;;;;;;0.10;0.10;;;8.00;65.80;;;;;;5492269;26;20002;-78
2024/04/23 02:38:58;;;;;;;0.10;0.10;;;8.00;65.80;;;;;;5491743;26;20010;-78
2024/04/23 02:41:24;;;;;;;0.10;0.10;;;8.00;65.80;;;;;;5493461;26;20010;-79
2024/04/23 02:43:49;;;;;;;0.10;0.10;;;8.00;65.80;;;;;;5490477;26;20013;-78
2024/04/23 02:46:15;;;;;;;0.05;0.05;;;8.00;65.70;;;;;;5521960;26;19998;-78
2024/04/23 02:48:41;;;;;;;0.10;0.10;;;8.00;65.80;;;;;;5492128;26;19999;-78
2024/04/23 02:51:07;;;;;;;0.10;0.10;;;8.00;65.80;;;;;;5492856;26;20038;-78
2024/04/23 02:53:32;;;;;;;0.10;0.10;;;7.90;65.80;;;;;;5491363;26;20009;-78
2024/04/23 02:55:58;;;;;;;0.10;0.10;;;7.90;65.80;;;;;;5491804;26;20009;-79
2024/04/23 02:58:23;;;;;;;0.10;0.10;;;7.80;66.00;;;;;;5493368;26;19994;-78
2024/04/23 03:00:49;;;;;;;0.10;0.10;;;7.80;66.10;;;;;;5492430;26;20006;-78
2024/04/23 03:03:15;;;;;;;0.10;0.10;;;7.70;66.30;;;;;;5493258;26;20340;-78
2024/04/23 03:05:40;;;;;;;0.10;0.10;;;7.70;66.30;;;;;;5492516;26;20017;-78
2024/04/23 03:08:06;;;;;;;0.10;0.10;;;7.70;66.30;;;;;;5492142;26;20469;-78
2024/04/23 03:10:32;;;;;;;0.10;0.10;;;7.70;66.40;;;;;;5520694;26;20009;-78
2024/04/23 03:12:57;;;;;;;0.10;0.10;;;7.70;66.30;;;;;;5527357;26;19990;-78
2024/04/23 03:15:23;;;;;;;0.10;0.10;;;7.70;66.50;;;;;;5514033;26;20013;-79
2024/04/23 03:17:48;;;;;;;0.10;0.10;;;7.60;66.70;;;;;;5492619;26;20002;-78
2024/04/23 03:20:14;;;;;;;0.10;0.10;;;7.60;66.80;;;;;;5492701;26;19998;-79
2024/04/23 03:22:40;;;;;;;0.10;0.10;;;7.50;66.90;;;;;;5491359;26;20440;-78
2024/04/23 03:25:06;;;;;;;0.10;0.10;;;7.50;67.10;;;;;;5488556;26;20026;-79
2024/04/23 03:27:32;;;;;;;0.10;0.10;;;7.40;67.00;;;;;;5491494;26;20014;-78
2024/04/23 03:29:57;;;;;;;0.10;0.10;;;7.40;67.20;;;;;;5490163;26;20009;-79
2024/04/23 03:32:23;;;;;;;0.10;0.10;;;7.30;67.30;;;;;;5520329;26;20009;-78
2024/04/23 03:34:48;;;;;;;0.10;0.10;;;7.30;67.40;;;;;;5491412;26;20002;-78
2024/04/23 03:37:14;;;;;;;0.10;0.10;;;7.30;67.30;;;;;;5492009;26;19998;-79
2024/04/23 03:39:40;;;;;;;0.10;0.10;;;7.30;67.30;;;;;;5492749;26;20010;-78
2024/04/23 03:42:05;;;;;;;0.10;0.10;;;7.20;67.30;;;;;;5491628;26;20067;-79
2024/04/23 03:44:31;;;;;;;0.10;0.10;;;7.20;67.40;;;;;;5492630;26;19998;-79
2024/04/23 03:46:57;;;;;;;0.10;0.10;;;7.20;67.60;;;;;;5519259;26;19998;-79
2024/04/23 03:49:22;;;;;;;0.10;0.10;;;7.10;67.60;;;;;;5489976;26;20327;-78
2024/04/23 03:51:48;;;;;;;0.10;0.10;;;7.00;67.90;;;;;;5490753;25;20070;-78
2024/04/23 03:54:14;;;;;;;0.10;0.10;;;6.90;68.40;;;;;;5492134;26;19998;-78
2024/04/23 03:56:39;;;;;;;0.10;0.10;;;6.80;68.40;;;;;;5491711;26;19998;-79
2024/04/23 03:59:05;;;;;;;0.10;0.10;;;6.70;68.40;;;;;;5491295;26;20049;-78
2024/04/23 04:01:31;;;;;;;0.10;0.10;;;6.70;68.60;;;;;;5492351;26;20086;-78
2024/04/23 04:06:41;;;;;;;0.10;0.10;;;6.70;69.10;;;;;;5454797;26;20083;-79
2024/04/23 04:09:07;;;;;;;0.10;0.10;;;6.70;68.90;;;;;;5491246;26;20005;-78
2024/04/23 04:11:34;;;;;;;0.10;0.10;;;6.80;68.90;;;;;;5526907;26;19993;-78
2024/04/23 04:14:00;;;;;;;0.10;0.10;;;6.70;69.10;;;;;;5527951;25;20786;-78
2024/04/23 04:16:26;;;;;;;0.10;0.10;;;6.80;69.10;;;;;;5489303;26;20078;-78
2024/04/23 04:18:51;;;;;;;0.10;0.10;;;6.80;69.00;;;;;;5490218;26;20010;-79
2024/04/23 04:21:18;;;;;;;0.10;0.10;;;6.80;69.00;;;;;;5488842;26;19998;-78
2024/04/23 04:23:43;;;;;;;0.10;0.10;;;6.90;68.80;;;;;;5490673;26;20002;-78
2024/04/23 04:26:13;;;;;;;0.10;0.10;;;6.90;68.70;;;;;;5491920;26;20773;-79
2024/04/23 04:28:42;;;;;;;0.10;0.10;;;6.80;68.90;;;;;;5490500;26;20002;-78
2024/04/23 04:31:08;;;;;;;0.10;0.10;;;6.80;69.00;;;;;;5491576;26;20013;-78
2024/04/23 04:33:34;;;;;;;0.10;0.10;;;6.90;69.00;;;;;;5483098;26;19995;-78
2024/04/23 04:36:00;;;;;;;0.10;0.10;;;6.90;68.90;;;;;;5469699;26;20451;-79
2024/04/23 04:38:25;;;;;;;0.10;0.10;;;6.90;68.70;;;;;;5490065;26;19998;-78
2024/04/23 04:40:51;;;;;;;0.10;0.10;;;6.90;68.60;;;;;;5490611;26;20813;-78
2024/04/23 04:43:17;;;;;;;0.10;0.10;;;6.90;68.40;;;;;;5489332;26;19998;-79
2024/04/23 04:45:43;;;;;;;0.10;0.10;;;6.80;68.60;;;;;;5499366;26;19994;-79
2024/04/23 04:48:09;;;;;;;0.10;0.10;;;6.70;68.40;;;;;;5497269;26;20066;-78
2024/04/23 04:50:34;;;;;;;0.10;0.10;;;6.80;68.60;;;;;;5498993;26;20361;-78
2024/04/23 04:53:00;;;;;;;0.10;0.10;;;6.70;68.70;;;;;;5467525;26;20508;-76
2024/04/23 04:55:26;;;;;;;0.10;0.10;;;6.70;68.70;;;;;;5491360;26;19998;-76
2024/04/23 04:57:52;;;;;;;0.10;0.10;;;6.80;68.50;;;;;;5497690;26;19994;-80
2024/04/23 05:00:17;;;;;;;0.10;0.10;;;6.80;68.40;;;;;;5498330;26;20535;-78
2024/04/23 05:02:43;;;;;;;0.10;0.10;;;6.70;68.40;;;;;;5495791;26;20479;-80
2024/04/23 05:05:09;;;;;;;0.10;0.10;;;6.80;68.50;;;;;;5499005;26;20010;-79
2024/04/23 05:07:34;;;;;;;0.10;0.10;;;6.80;68.60;;;;;;5498582;26;20041;-80
2024/04/23 05:10:00;;;;;;;0.10;0.10;;;6.80;68.50;;;;;;5519117;26;20001;-80
2024/04/23 05:12:26;;;;;;;0.10;0.10;;;6.80;68.40;;;;;;5512529;25;19994;-79
2024/04/23 05:14:52;;;;;;;0.10;0.10;;;6.80;68.70;;;;;;5496970;26;20001;-78
2024/04/23 05:17:18;;;;;;;0.10;0.10;;;6.70;68.90;;;;;;5496788;26;20009;-78
2024/04/23 05:19:44;;;;;;;0.10;0.10;;;6.70;69.10;;;;;;5497236;26;20006;-78
2024/04/23 05:22:11;;;;;;;0.10;0.10;;;6.60;69.30;;;;;;5497102;26;20012;-79
2024/04/23 05:24:37;;;;;;;0.10;0.10;;;6.50;69.70;;;;;;5498894;26;20009;-76
2024/04/23 05:27:02;;;;;;;0.10;0.10;;;6.50;69.80;;;;;;5487043;26;19990;-76
2024/04/23 05:29:28;;;;;;;0.10;0.10;;;6.50;69.70;;;;;;5482053;26;20002;-80
2024/04/23 05:34:38;;;;;;;0.10;0.10;;;6.40;70.20;;;;;;5498229;26;20031;-80
2024/04/23 05:37:03;;;;;;;0.10;0.10;;;6.40;70.40;;;;;;5498352;26;20002;-80
2024/04/23 05:39:29;;;;;;;0.10;0.10;;;6.40;70.50;;;;;;5482488;26;20005;-80
2024/04/23 05:41:55;;;;;;;0.10;0.10;;;6.50;70.30;;;;;;5494978;26;20389;-85
2024/04/23 05:44:21;;;;;;;0.10;0.10;;;6.50;69.90;;;;;;5491541;26;19998;-81
2024/04/23 05:46:47;;;;;;;0.10;0.10;;;6.60;69.80;;;;;;5495982;26;20022;-81
2024/04/23 05:49:50;;;;;;;0.10;0.10;;;6.70;69.50;;;;;;5496604;26;20005;-82
2024/04/23 05:52:55;;;;;;;0.10;0.10;;;6.60;69.60;;;;;;5482345;26;20014;-78
2024/04/23 05:55:40;;;;;;;0.10;0.10;;;6.70;69.70;;;;;;5479030;26;20542;-78
2024/04/23 05:58:07;;;;;;;0.10;0.10;;;6.60;69.70;;;;;;5477195;26;20002;-77
2024/04/23 06:00:33;;;;;;;0.10;0.10;;;6.60;70.00;;;;;;5478346;26;20474;-78
2024/04/23 06:02:59;;;;;;;0.10;0.10;;;6.60;70.20;;;;;;5474826;26;20013;-78
2024/04/23 06:05:24;;;;;;;0.10;0.10;;;6.60;70.70;;;;;;5475687;26;20010;-78
2024/04/23 06:07:51;;;;;;;0.10;0.10;;;6.60;70.80;;;;;;5474164;26;19994;-78
2024/04/23 06:10:17;;;;;;;0.10;0.10;;;6.70;70.40;;;;;;5476125;26;20027;-78
2024/04/23 06:12:43;;;;;;;0.10;0.10;;;6.70;70.40;;;;;;5467880;26;19999;-78
2024/04/23 06:15:08;;;;;;;0.10;0.10;;;6.70;70.40;;;;;;5474106;26;20012;-78
2024/04/23 06:17:35;;;;;;;0.10;0.10;;;6.80;70.50;;;;;;5470624;26;19999;-78
2024/04/23 06:20:02;;;;;;;0.13;0.13;;;6.80;70.40;;;;;;5479456;26;20472;-78
2024/04/23 06:22:29;;;;;;;0.10;0.10;;;6.90;70.50;;;;;;5474211;26;20007;-78
2024/04/23 06:24:55;;;;;;;0.10;0.10;;;6.90;70.80;;;;;;5482410;26;20383;-78
2024/04/23 06:27:22;;;;;;;0.10;0.10;;;7.00;70.90;;;;;;5473788;26;20013;-78
2024/04/23 06:29:48;;;;;;;0.10;0.10;;;7.20;70.80;;;;;;5477277;26;20005;-78
2024/04/23 06:32:14;;;;;;;0.10;0.10;;;7.30;70.40;;;;;;5480333;26;19999;-78
2024/04/23 06:34:44;;;;;;;0.10;0.10;;;7.50;70.30;;;;;;5474394;26;20020;-78
2024/04/23 06:37:11;;;;;;;0.10;0.10;;;7.70;69.70;;;;;;5476737;26;20014;-78
2024/04/23 06:39:37;;;;;;;0.10;0.10;;;8.00;69.20;;;;;;5477132;26;19995;-78
2024/04/23 06:42:03;;;;;;;0.10;0.10;;;8.20;68.40;;;;;;5492079;26;20002;-78
2024/04/23 06:44:29;;;;;;;0.10;0.10;;;8.30;68.10;;;;;;5474836;26;20314;-78
2024/04/23 06:46:54;;;;;;;0.17;0.17;;;8.40;68.00;;;;;;5473602;26;20002;-78
2024/04/23 06:49:20;;;;;;;0.10;0.10;;;8.50;67.80;;;;;;5479243;26;20006;-80
2024/04/23 06:51:46;;;;;;;0.10;0.10;;;8.60;67.60;;;;;;5487501;26;20050;-77
2024/04/23 06:54:12;;;;;;;0.10;0.10;;;8.60;67.50;;;;;;5495127;26;20636;-80
2024/04/23 06:56:38;;;;;;;0.10;0.10;;;8.60;67.50;;;;;;5479042;26;20486;-78
2024/04/23 06:59:09;;;;;;;0.10;0.10;;;8.70;67.30;;;;;;5467169;26;19998;-78
2024/04/23 07:01:35;;;;;;;0.10;0.10;;;8.80;66.90;;;;;;5476069;26;20002;-79
2024/04/23 07:04:01;;;;;;;0.10;0.10;;;9.00;66.90;;;;;;5475138;26;20017;-79
2024/04/23 07:06:27;;;;;;;0.10;0.10;;;9.00;66.40;;;;;;5473336;26;19995;-79
2024/04/23 07:08:53;;;;;;;0.10;0.10;;;9.10;66.40;;;;;;5480727;26;19998;-79
2024/04/23 07:11:19;;;;;;;0.10;0.10;;;9.20;66.10;;;;;;5488123;26;19998;-80
2024/04/23 07:13:46;;;;;;;0.10;0.10;;;9.30;66.30;;;;;;5492553;26;20005;-78
2024/04/23 07:16:15;;;;;;;0.10;0.10;;;9.30;66.10;;;;;;5490192;26;20002;-77
2024/04/23 07:18:41;;;;;;;0.10;0.10;;;9.50;65.60;;;;;;5461895;26;20083;-77
2024/04/23 07:21:07;;;;;;;0.10;0.10;;;9.50;65.60;;;;;;5467033;26;19994;-76
2024/04/23 07:23:33;;;;;;;0.10;0.10;;;9.70;65.40;;;;;;5492960;26;20002;-78
2024/04/23 07:25:59;;;;;;;0.10;0.10;;;9.90;65.20;;;;;;5485108;26;19994;-76
2024/04/23 07:28:24;;;;;;;0.10;0.10;;;10.00;64.40;;;;;;5482840;26;20003;-78
2024/04/23 07:30:50;;;;;;;0.20;0.20;;;10.20;64.60;;;;;;5474557;25;20002;-78
2024/04/23 07:33:16;;;;;;;0.20;0.20;;;10.30;64.10;;;;;;5476069;26;20006;-78
2024/04/23 07:35:45;;;;;;;0.10;0.10;;;10.50;63.40;;;;;;5464741;26;20043;-79
2024/04/23 07:38:12;;;;;;;0.10;0.10;;;10.90;62.40;;;;;;5475696;26;20030;-78
2024/04/23 07:40:39;;;;;;;0.20;0.20;;;11.30;61.10;;;;;;5476246;26;19998;-79
2024/04/23 07:43:08;;;;;;;0.10;0.10;;;11.20;60.50;;;;;;5475640;26;19998;-78
2024/04/23 07:45:34;;;;;;;0.38;0.38;;;10.80;61.10;;;;;;5475970;26;20449;-79
2024/04/23 07:48:00;;;;;;;0.40;0.40;;;13.50;58.20;;;;;;5476176;26;20133;-79
2024/04/23 07:50:26;;;;;;;0.50;0.50;;;16.20;52.10;;;;;;5480619;26;20014;-79
2024/04/23 07:52:52;;;;;;;0.60;0.60;;;18.50;46.70;;;;;;5486393;26;19998;-79
2024/04/23 07:55:17;;;;;;;0.60;0.60;;;20.20;41.20;;;;;;5486590;26;20014;-80
2024/04/23 07:57:47;;;;;;;0.20;0.20;;;21.80;38.90;;;;;;5473044;26;20005;-80
2024/04/23 08:00:13;;;;;;;0.50;0.50;;;22.20;36.90;;;;;;5473257;26;20034;-80
2024/04/23 08:02:42;;;;;;;0.70;0.70;;;22.10;36.70;;;;;;5474768;26;20001;-80
2024/04/23 08:05:11;;;;;;;0.28;0.28;;;23.70;35.20;;;;;;5475484;26;19998;-80
2024/04/23 08:07:37;;;;;;;0.10;0.10;;;24.20;33.10;;;;;;5476744;26;20014;-79
2024/04/23 08:10:03;;;;;;;0.10;0.10;;;22.10;34.60;;;;;;5493314;26;20027;-79
2024/04/23 08:12:29;;;;;;;0.10;0.10;;;20.40;37.00;;;;;;5491097;26;20026;-79
2024/04/23 08:14:55;;;;;;;0.10;0.10;;;19.40;38.90;;;;;;5484080;26;19999;-79
2024/04/23 08:17:21;;;;;;;0.10;0.10;;;18.50;40.50;;;;;;5456383;26;19998;-79
2024/04/23 08:19:47;;;;;;;0.10;0.10;;;18.40;41.30;;;;;;5454655;26;19991;-80
2024/04/23 08:22:12;;;;;;;0.80;0.80;;;17.80;41.90;;;;;;5478964;26;20454;-79
2024/04/23 08:24:38;;;;;;;0.45;0.45;;;18.80;41.70;;;;;;5491052;26;20058;-79
2024/04/23 08:27:04;;;;;;;0.30;0.30;;;20.30;39.80;;;;;;5493029;26;20012;-79
2024/04/23 08:29:29;;;;;;;0.80;0.80;;;20.10;38.70;;;;;;5491164;26;20450;-80
2024/04/23 08:31:55;;;;;;;0.70;0.70;;;21.90;37.20;;;;;;5491111;26;20002;-79
2024/04/23 08:34:21;;;;;;;0.50;0.50;;;23.30;34.40;;;;;;5481317;26;20002;-80
2024/04/23 08:36:47;;;;;;;0.60;0.60;;;24.00;32.50;;;;;;5475623;26;19995;-80
2024/04/23 08:39:12;;;;;;;0.60;0.60;;;24.60;32.30;;;;;;5473315;26;20009;-80
2024/04/23 08:41:41;;;;;;;0.70;0.70;;;25.10;30.90;;;;;;5470074;26;20003;-80
2024/04/23 08:44:09;;;;;;;0.40;0.40;;;25.80;30.90;;;;;;5454152;26;20018;-79
2024/04/23 08:46:39;;;;;;;0.10;0.10;;;25.20;30.60;;;;;;5456114;26;20350;-80
2024/04/23 08:49:10;;;;;;;0.30;0.30;;;23.40;32.10;;;;;;5482542;26;20030;-79
2024/04/23 08:51:35;;;;;;;0.00;0.00;;;22.20;34.00;;;;;;5480396;26;20009;-79
2024/04/23 08:54:27;;;;;;;0.60;0.60;;;20.90;35.10;;;;;;5473209;26;20010;-79
2024/04/23 08:56:54;;;;;;;0.50;0.50;;;20.30;36.70;;;;;;5465279;26;20445;-79
2024/04/23 08:59:21;;;;;;;0.10;0.10;;;20.90;36.70;;;;;;5475602;26;20394;-79
2024/04/23 09:01:58;;;;;;;0.10;0.10;;;20.80;36.60;;;;;;5460223;26;19995;-79
2024/04/23 09:04:25;;;;;;;0.10;0.10;;;20.00;37.60;;;;;;5465128;26;20007;-79
2024/04/23 09:06:52;;;;;;;0.60;0.60;;;20.10;37.40;;;;;;5461486;26;20055;-79
2024/04/23 09:09:21;;;;;;;0.70;0.70;;;21.40;36.30;;;;;;5489986;26;20033;-79
2024/04/23 09:11:51;;;;;;;0.63;0.63;;;23.00;35.00;;;;;;5498653;26;19998;-79
2024/04/23 09:14:17;;;;;;;0.10;0.10;;;23.70;34.00;;;;;;5455933;26;19999;-79
2024/04/23 09:16:44;;;;;;;0.10;0.10;;;22.50;33.40;;;;;;5460774;26;20003;-79
2024/04/23 09:19:09;;;;;;;0.50;0.50;;;21.30;33.90;;;;;;5473195;26;19998;-78
2024/04/23 09:21:36;;;;;;;0.75;0.75;;;20.80;35.60;;;;;;5474446;26;20010;-78
2024/04/23 09:24:03;;;;;;;0.60;0.60;;;22.00;34.30;;;;;;5470504;26;20002;-79
2024/04/23 09:26:30;;;;;;;0.10;0.10;;;22.80;32.30;;;;;;5477382;26;20084;-79
2024/04/23 09:28:56;;;;;;;0.70;0.70;;;22.60;32.20;;;;;;5471781;26;19995;-78
2024/04/23 09:31:24;;;;;;;0.10;0.10;;;23.10;32.00;;;;;;5475629;26;19998;-78
2024/04/23 09:33:57;;;;;;;0.00;0.00;;;22.20;31.80;;;;;;5495284;26;20059;-78
2024/04/23 09:36:27;;;;;;;0.40;0.40;;;21.10;33.20;;;;;;5490998;26;19994;-80
2024/04/23 09:39:03;;;;;;;0.20;0.20;;;20.90;34.00;;;;;;5495594;26;20082;-78
2024/04/23 09:41:31;;;;;;;0.30;0.30;;;21.40;33.20;;;;;;5493414;26;20103;-78
2024/04/23 09:43:59;;;;;;;0.00;0.00;;;21.50;33.60;;;;;;5494552;26;19998;-75
2024/04/23 09:46:28;;;;;;;0.00;0.00;;;20.60;34.30;;;;;;5494721;26;20008;-78
2024/04/23 09:48:54;;;;;;;0.10;0.10;;;19.80;34.70;;;;;;5494487;26;19998;-78
2024/04/23 09:51:20;;;;;;;0.10;0.10;;;19.20;36.20;;;;;;5494494;26;20022;-77
2024/04/23 09:53:49;;;;;;;0.10;0.10;;;18.80;36.30;;;;;;5493287;26;20066;-78
2024/04/23 09:56:21;;;;;;;0.10;0.10;;;18.70;37.40;;;;;;5493741;26;20009;-77
2024/04/23 09:58:47;;;;;;;0.10;0.10;;;18.30;38.40;;;;;;5484050;26;20017;-84
2024/04/23 10:01:21;;;;;;;0.10;0.10;;;18.00;37.80;;;;;;5474668;26;20096;-85
2024/04/23 10:03:50;;;;;;;0.10;0.10;;;18.00;38.70;;;;;;5458932;26;19998;-85
2024/04/23 10:06:23;;;;;;;0.10;0.10;;;18.20;38.30;;;;;;5481710;26;19998;-85
2024/04/23 10:08:54;;;;;;;0.10;0.10;;;18.20;38.80;;;;;;5472925;26;20452;-85
2024/04/23 10:11:31;;;;;;;0.10;0.10;;;17.90;38.10;;;;;;5531643;26;20072;-85
2024/04/23 10:14:08;;;;;;;0.10;0.10;;;17.80;39.10;;;;;;5492152;26;19998;-84
2024/04/23 10:16:43;;;;;;;0.00;0.00;;;17.70;40.30;;;;;;5478233;26;20407;-85
2024/04/23 10:19:10;;;;;;;0.10;0.10;;;17.70;40.70;;;;;;5492756;26;19994;-85
2024/04/23 10:21:42;;;;;;;0.10;0.10;;;17.30;40.40;;;;;;5494246;26;20002;-85
2024/04/23 10:24:09;;;;;;;0.10;0.10;;;17.30;41.30;;;;;;5493273;26;20516;-85
2024/04/23 10:26:45;;;;;;;0.10;0.10;;;17.40;41.40;;;;;;5492368;26;19998;-85
2024/04/23 10:29:13;;;;;;;0.10;0.10;;;17.20;41.10;;;;;;5492950;26;20380;-84
2024/04/23 10:31:41;;;;;;;0.00;0.00;;;17.10;41.80;;;;;;5490589;26;20005;-85
2024/04/23 10:34:07;;;;;;;0.10;0.10;;;17.10;42.70;;;;;;5492203;26;20009;-85
2024/04/23 10:36:40;;;;;;;0.10;0.10;;;17.10;42.00;;;;;;5492711;26;20013;-85
2024/04/23 10:39:07;;;;;;;0.00;0.00;;;17.10;42.20;;;;;;5490323;26;19994;-85
2024/04/23 10:41:37;;;;;;;0.10;0.10;;;16.90;42.50;;;;;;5493561;25;20124;-85
2024/04/23 10:44:06;;;;;;;0.10;0.10;;;17.00;42.10;;;;;;5492122;26;20006;-85
2024/04/23 10:46:31;;;;;;;0.10;0.10;;;17.10;41.70;;;;;;5494548;26;20011;-85
2024/04/23 10:48:59;;;;;;;0.10;0.10;;;17.10;41.80;;;;;;5492589;26;19998;-85
2024/04/23 10:51:25;;;;;;;0.10;0.10;;;17.20;42.20;;;;;;5484834;26;20014;-85
2024/04/23 10:53:51;;;;;;;0.10;0.10;;;17.20;41.40;;;;;;5461458;26;20008;-86
2024/04/23 10:56:24;;;;;;;0.10;0.10;;;17.20;42.00;;;;;;5493216;26;20449;-85
2024/04/23 10:59:03;;;;;;;0.10;0.10;;;17.20;41.70;;;;;;5494368;26;20010;-84
2024/04/23 11:01:29;;;;;;;0.10;0.10;;;17.10;40.70;;;;;;5520020;26;20047;-85
2024/04/23 11:04:02;;;;;;;0.10;0.10;;;16.90;40.50;;;;;;5493830;26;20340;-84
2024/04/23 11:06:38;;;;;;;0.10;0.10;;;17.00;40.90;;;;;;5492307;26;20453;-86
2024/04/23 11:09:22;;;;;;;0.17;0.17;;;17.30;40.80;;;;;;5499273;26;20013;-86
2024/04/23 11:11:50;;;;;;;0.10;0.10;;;17.40;40.40;;;;;;5486091;26;20001;-86
2024/04/23 11:14:16;;;;;;;0.10;0.10;;;17.40;40.70;;;;;;5471677;26;20006;-86
2024/04/23 11:16:42;;;;;;;0.10;0.10;;;17.40;40.40;;;;;;5461007;26;20048;-86
2024/04/23 11:19:08;;;;;;;0.10;0.10;;;17.60;41.20;;;;;;5485866;26;20398;-88
2024/04/23 11:21:42;;;;;;;0.10;0.10;;;17.70;40.80;;;;;;5474994;26;19998;-84
2024/04/23 11:24:11;;;;;;;0.10;0.10;;;17.80;41.20;;;;;;5469963;26;19995;-84
2024/04/23 11:26:39;;;;;;;0.10;0.10;;;17.70;41.30;;;;;;5473958;26;20464;-84
2024/04/23 11:29:09;;;;;;;0.10;0.10;;;17.40;40.80;;;;;;5469493;26;20021;-84
2024/04/23 11:31:35;;;;;;;0.10;0.10;;;17.10;41.90;;;;;;5477514;26;20009;-83
2024/04/23 11:34:01;;;;;;;0.10;0.10;;;17.20;40.60;;;;;;5484045;26;20452;-85
2024/04/23 11:36:28;;;;;;;0.10;0.10;;;16.90;40.90;;;;;;5484277;26;20688;-85
2024/04/23 11:39:00;;;;;;;0.20;0.20;;;16.90;41.60;;;;;;5473885;26;20001;-86
2024/04/23 11:41:25;;;;;;;0.10;0.10;;;17.10;41.50;;;;;;5480084;26;20009;-86
2024/04/23 11:43:51;;;;;;;0.10;0.10;;;17.30;41.40;;;;;;5461434;26;20002;-85
2024/04/23 11:46:17;;;;;;;0.10;0.10;;;17.30;41.00;;;;;;5492981;26;20005;-84
2024/04/23 11:48:43;;;;;;;0.10;0.10;;;17.40;40.10;;;;;;5487809;26;20033;-85
2024/04/23 11:51:11;;;;;;;0.10;0.10;;;17.60;40.20;;;;;;5482614;26;20043;-85
2024/04/23 11:53:37;;;;;;;0.10;0.10;;;17.90;40.10;;;;;;5472921;26;20007;-85
2024/04/23 11:56:05;;;;;;;0.10;0.10;;;17.90;40.20;;;;;;5472078;26;20070;-85
2024/04/23 11:58:35;;;;;;;0.10;0.10;;;17.80;40.00;;;;;;5480741;26;20002;-85
2024/04/23 12:01:01;;;;;;;0.10;0.10;;;17.60;40.20;;;;;;5471719;26;20005;-85
2024/04/23 12:03:27;;;;;;;0.10;0.10;;;17.20;40.90;;;;;;5474910;26;20013;-85
2024/04/23 12:05:54;;;;;;;0.10;0.10;;;17.10;41.60;;;;;;5472679;26;20006;-84
2024/04/23 12:08:21;;;;;;;0.10;0.10;;;17.10;42.00;;;;;;5469981;26;19994;-84
2024/04/23 12:10:46;;;;;;;0.10;0.10;;;16.90;42.60;;;;;;5477674;26;20002;-84
2024/04/23 12:13:19;;;;;;;0.10;0.10;;;16.60;43.30;;;;;;5476573;26;19994;-84
2024/04/23 12:15:45;;;;;;;0.00;0.00;;;16.40;43.50;;;;;;5480559;26;20027;-85
2024/04/23 12:18:10;;;;;;;0.10;0.10;;;16.20;42.70;;;;;;5472987;26;20006;-85
2024/04/23 12:20:37;;;;;;;0.10;0.10;;;16.30;43.30;;;;;;5473545;26;19998;-84
2024/04/23 12:23:10;;;;;;;0.00;0.00;;;16.30;43.10;;;;;;5463026;26;20010;-85
2024/04/23 12:25:36;;;;;;;;;;;16.10;43.70;;;;;;5480163;26;19998;-85
2024/04/23 12:28:04;;;;;;;0.00;0.00;;;15.70;43.80;;;;;;5479692;26;19924;-85
2024/04/23 12:30:30;;;;;;;0.00;0.00;;;15.50;44.80;;;;;;5488516;26;20464;-84
2024/04/23 12:33:06;;;;;;;0.00;0.00;;;15.00;45.50;;;;;;5470859;26;20070;-84
2024/04/23 12:35:31;;;;;;;0.00;0.00;;;15.00;46.40;;;;;;5472950;26;20017;-85
2024/04/23 12:37:58;;;;;;;0.10;0.10;;;15.10;46.40;;;;;;5472432;26;19998;-85
2024/04/23 12:40:24;;;;;;;0.08;0.08;;;15.20;46.60;;;;;;5476493;26;20004;-85
2024/04/23 12:42:50;;;;;;;0.10;0.10;;;15.30;47.10;;;;;;5472333;26;19998;-85
2024/04/23 12:45:18;;;;;;;0.00;0.00;;;15.30;46.80;;;;;;5475053;26;20543;-84
2024/04/23 12:47:44;;;;;;;0.10;0.10;;;15.30;47.10;;;;;;5476865;26;20002;-86
2024/04/23 12:50:12;;;;;;;0.10;0.10;;;15.40;47.40;;;;;;5474473;26;20013;-84
2024/04/23 12:52:38;;;;;;;0.10;0.10;;;15.80;46.80;;;;;;5481419;26;20421;-84
2024/04/23 12:55:04;;;;;;;0.10;0.10;;;16.20;46.20;;;;;;5470745;26;20330;-84
2024/04/23 12:57:29;;;;;;;0.10;0.10;;;16.30;45.10;;;;;;5476750;26;19995;-85